Terminal Aerodrome Forecast
Issued by NWS Pittsburgh, PA

Current Version | Previous Version | Graphics & Text | Print | Product List | Glossary On
Versions: 1 2 3 4 5 6 7 8 9 10 11 12 13 14 15 16 17 18 19 20 21 22 23 24 25 26 27 28 29 30 31 32 33
000
FTUS41 KPBZ 210200 AAA
TAFPIT
TAF AMD
KPIT 210237Z 2103/2206 VRB05KT P6SM SCT050
      TEMPO 2110/2113 5SM BR
     FM211600 24010KT P6SM BKN060
     FM220000 VRB05KT P6SM SCT060=

USA.gov is the U.S. government's official web portal to all federal, state and local government web resources and services.